Time;durP1;ratioP1;P1;durP2;ratioP2;P2;SDS_P1;SDS_P2;PMS_P1;PMS_P2;Temp;Humidity;BMP_temperature;BMP_pressure;BME280_temperature;BME280_humidity;BME280_pressure;Samples;Min_cycle;Max_cycle;Signal;HPM_P1;HPM_P2
2023/03/22 00:00:53;;;;;;;13.30;5.30;;;21.00;70.70;;;;;;5027787;28;20032;-75
2023/03/22 00:03:20;;;;;;;16.80;5.80;;;21.00;70.90;;;;;;5013838;28;20108;-75
2023/03/22 00:05:45;;;;;;;11.82;5.20;;;21.00;70.80;;;;;;5031224;28;20060;-76
2023/03/22 00:08:12;;;;;;;11.57;5.10;;;21.00;70.60;;;;;;5048807;28;20532;-76
2023/03/22 00:10:39;;;;;;;11.45;5.30;;;21.00;70.60;;;;;;5049284;28;20037;-75
2023/03/22 00:13:07;;;;;;;11.05;5.30;;;20.90;70.50;;;;;;5047702;28;20087;-75
2023/03/22 00:15:35;;;;;;;12.95;5.18;;;20.90;70.50;;;;;;5048956;28;20029;-75
2023/03/22 00:18:01;;;;;;;13.98;5.10;;;20.90;70.40;;;;;;5031012;28;20500;-75
2023/03/22 00:20:29;;;;;;;13.13;5.20;;;20.90;70.50;;;;;;5048434;28;20021;-75
2023/03/22 00:22:56;;;;;;;10.98;5.18;;;20.90;70.50;;;;;;5026862;28;20075;-76
2023/03/22 00:25:22;;;;;;;12.45;5.20;;;20.90;70.50;;;;;;5013092;28;20037;-75
2023/03/22 00:27:48;;;;;;;13.32;5.38;;;20.90;70.60;;;;;;5030865;28;20413;-75
2023/03/22 00:30:14;;;;;;;15.32;5.72;;;20.90;70.60;;;;;;5013132;28;20041;-76
2023/03/22 00:32:41;;;;;;;11.85;5.03;;;20.90;70.60;;;;;;4996337;28;20104;-77
2023/03/22 00:35:08;;;;;;;10.48;5.35;;;20.90;70.60;;;;;;5030816;28;20080;-77
2023/03/22 00:37:37;;;;;;;10.43;5.18;;;20.90;70.50;;;;;;4996639;28;20494;-75
2023/03/22 00:40:13;;;;;;;9.02;5.22;;;20.90;70.50;;;;;;4980785;28;20091;-76
2023/03/22 00:42:40;;;;;;;12.73;5.18;;;20.90;70.50;;;;;;5012349;28;20036;-75
2023/03/22 00:45:08;;;;;;;9.82;4.93;;;20.90;70.50;;;;;;5012967;28;20075;-76
2023/03/22 00:47:34;;;;;;;9.90;5.68;;;20.90;70.50;;;;;;4996520;28;20478;-77
2023/03/22 00:50:00;;;;;;;9.80;5.07;;;20.90;70.40;;;;;;5029652;28;20029;-77
2023/03/22 00:52:27;;;;;;;9.75;4.95;;;20.90;70.50;;;;;;5013841;28;20481;-76
2023/03/22 00:54:53;;;;;;;9.35;5.10;;;20.90;70.40;;;;;;5030299;28;20538;-77
2023/03/22 00:57:19;;;;;;;9.38;4.97;;;20.90;70.40;;;;;;5013977;28;20033;-74
2023/03/22 00:59:45;;;;;;;7.85;4.47;;;20.90;70.50;;;;;;5004576;28;20030;-76
2023/03/22 01:02:12;;;;;;;10.63;4.88;;;20.90;70.50;;;;;;4996153;28;20517;-77
2023/03/22 01:04:45;;;;;;;15.82;5.15;;;20.90;70.50;;;;;;5012758;28;20025;-76
2023/03/22 01:07:16;;;;;;;11.10;4.75;;;20.90;70.80;;;;;;5012527;28;20105;-75
2023/03/22 01:09:47;;;;;;;16.80;5.20;;;20.90;70.60;;;;;;5010243;28;20045;-76
2023/03/22 01:12:14;;;;;;;10.30;4.70;;;20.90;70.50;;;;;;5030118;28;20047;-75
2023/03/22 01:14:41;;;;;;;11.07;4.30;;;20.90;70.40;;;;;;5012540;28;20132;-76
2023/03/22 01:17:07;;;;;;;13.05;4.65;;;20.90;70.50;;;;;;4991122;28;20025;-76
2023/03/22 01:19:35;;;;;;;11.98;4.68;;;20.90;70.50;;;;;;5001956;28;20033;-77
2023/03/22 01:22:01;;;;;;;14.93;5.07;;;20.80;70.40;;;;;;5020151;28;20026;-75
2023/03/22 01:24:27;;;;;;;9.82;4.28;;;20.90;70.60;;;;;;5017467;28;20064;-76
2023/03/22 01:26:53;;;;;;;11.07;4.82;;;20.80;70.50;;;;;;5002793;28;20053;-76
2023/03/22 01:29:19;;;;;;;9.98;4.50;;;20.80;70.50;;;;;;5002855;28;20113;-76
2023/03/22 01:31:45;;;;;;;12.25;4.32;;;20.80;70.60;;;;;;5003506;28;20030;-76
2023/03/22 01:34:12;;;;;;;8.35;4.80;;;20.90;70.60;;;;;;5000626;28;20030;-76
2023/03/22 01:36:38;;;;;;;11.63;4.85;;;20.80;70.50;;;;;;5022909;28;20033;-76
2023/03/22 01:39:04;;;;;;;9.07;4.80;;;20.80;70.50;;;;;;5009548;28;20040;-76
2023/03/22 01:41:34;;;;;;;17.77;4.80;;;20.80;70.30;;;;;;5012677;28;20032;-76
2023/03/22 01:44:22;;;;;;;10.40;4.47;;;20.80;70.50;;;;;;5028641;28;20038;-76
2023/03/22 01:46:50;;;;;;;11.40;4.32;;;20.90;70.80;;;;;;5012600;28;20417;-76
2023/03/22 01:49:17;;;;;;;16.33;4.75;;;20.80;70.20;;;;;;5012267;28;20034;-75
2023/03/22 01:51:46;;;;;;;10.43;4.68;;;20.90;71.00;;;;;;4996105;28;20416;-75
2023/03/22 01:54:33;;;;;;;15.90;4.80;;;20.80;70.50;;;;;;4995602;28;20048;-73
2023/03/22 01:57:04;;;;;;;14.50;5.20;;;20.80;70.50;;;;;;5012256;28;20505;-76
2023/03/22 01:59:38;;;;;;;10.88;4.70;;;20.80;71.00;;;;;;5012148;28;20029;-75
2023/03/22 02:02:20;;;;;;;12.52;4.45;;;20.80;70.40;;;;;;5011978;28;20025;-75
2023/03/22 02:04:56;;;;;;;9.10;4.32;;;20.80;70.40;;;;;;4996454;28;20068;-76
2023/03/22 02:07:26;;;;;;;8.65;4.28;;;20.80;70.40;;;;;;4995862;28;20124;-76
2023/03/22 02:09:57;;;;;;;9.00;4.60;;;20.80;70.40;;;;;;5012094;28;20116;-74
2023/03/22 02:13:04;;;;;;;6.75;4.13;;;20.80;70.40;;;;;;4984285;28;20043;-74
2023/03/22 02:15:50;;;;;;;9.07;4.70;;;20.80;70.40;;;;;;5031379;28;20439;-74
2023/03/22 02:19:04;;;;;;;8.23;4.53;;;20.80;70.40;;;;;;5018324;28;20044;-74
2023/03/22 02:22:00;;;;;;;7.78;4.30;;;20.80;70.40;;;;;;5031519;28;20029;-75
2023/03/22 02:24:50;;;;;;;8.02;4.20;;;20.80;70.40;;;;;;5030281;28;20040;-74
2023/03/22 02:27:31;;;;;;;8.80;4.00;;;20.80;71.00;;;;;;5031152;28;20507;-74
2023/03/22 02:30:14;;;;;;;7.60;4.10;;;20.70;70.50;;;;;;5031420;28;20028;-75
2023/03/22 02:33:18;;;;;;;8.30;4.40;;;20.70;70.20;;;;;;5030975;28;20025;-75
2023/03/22 02:36:06;;;;;;;7.47;3.90;;;20.70;70.30;;;;;;4998291;28;20040;-74
2023/03/22 02:38:51;;;;;;;7.25;3.72;;;20.80;70.40;;;;;;5031062;28;20048;-74
2023/03/22 02:41:30;;;;;;;8.98;4.40;;;20.70;70.40;;;;;;5031382;28;20021;-75
2023/03/22 02:44:09;;;;;;;8.68;4.10;;;20.80;70.80;;;;;;5030815;28;20029;-75
2023/03/22 02:46:53;;;;;;;7.72;4.05;;;20.80;70.20;;;;;;5031118;28;20044;-75
2023/03/22 02:49:27;;;;;;;8.25;4.15;;;20.70;70.20;;;;;;5030879;28;20064;-75
2023/03/22 02:52:00;;;;;;;6.10;3.70;;;20.80;70.30;;;;;;5031276;28;20064;-77
2023/03/22 02:54:37;;;;;;;9.32;4.20;;;20.80;70.10;;;;;;5030623;28;20028;-77
2023/03/22 02:57:15;;;;;;;9.02;4.13;;;20.80;70.30;;;;;;5030993;28;20032;-77
2023/03/22 02:59:43;;;;;;;7.85;4.07;;;20.80;70.30;;;;;;5031113;28;20033;-77
2023/03/22 03:02:13;;;;;;;7.38;4.45;;;20.80;70.30;;;;;;5014397;28;20029;-75
2023/03/22 03:04:46;;;;;;;7.65;3.90;;;20.70;70.90;;;;;;5031124;28;20115;-75
2023/03/22 03:07:15;;;;;;;7.05;3.85;;;20.80;70.40;;;;;;5030338;28;20072;-75
2023/03/22 03:09:42;;;;;;;7.07;3.95;;;20.70;70.20;;;;;;5031025;28;20032;-74
2023/03/22 03:12:18;;;;;;;10.50;4.27;;;20.70;70.50;;;;;;5014343;28;20041;-75
2023/03/22 03:14:44;;;;;;;9.20;4.10;;;20.70;70.30;;;;;;5048816;28;20056;-75
2023/03/22 03:17:45;;;;;;;9.30;4.47;;;20.70;70.40;;;;;;5030228;28;20544;-75
2023/03/22 03:20:35;;;;;;;6.05;3.67;;;20.70;70.30;;;;;;5030873;28;20033;-75
2023/03/22 03:23:04;;;;;;;7.40;3.58;;;20.70;70.40;;;;;;5030136;28;20048;-75
2023/03/22 03:25:37;;;;;;;8.32;3.97;;;20.70;70.40;;;;;;5048822;28;20111;-75
2023/03/22 03:28:29;;;;;;;5.47;3.63;;;20.70;70.40;;;;;;5014307;28;20100;-75
2023/03/22 03:31:03;;;;;;;8.48;4.07;;;20.70;70.30;;;;;;5030694;28;20051;-75
2023/03/22 03:33:34;;;;;;;8.38;4.03;;;20.70;70.40;;;;;;5030367;28;20426;-75
2023/03/22 03:36:08;;;;;;;7.97;4.00;;;20.70;70.30;;;;;;5048646;28;20025;-74
2023/03/22 03:38:38;;;;;;;7.15;3.85;;;20.70;70.40;;;;;;5051890;28;20075;-75
2023/03/22 03:41:10;;;;;;;7.50;3.80;;;20.70;70.40;;;;;;5001653;28;20029;-74
2023/03/22 03:43:37;;;;;;;7.43;4.15;;;20.70;70.30;;;;;;5017936;28;20029;-75
2023/03/22 03:46:05;;;;;;;7.93;4.03;;;20.70;70.10;;;;;;5034137;28;20079;-75
2023/03/22 03:48:33;;;;;;;6.97;3.72;;;20.70;70.20;;;;;;5017890;28;20029;-75
2023/03/22 03:51:01;;;;;;;6.25;3.63;;;20.70;70.10;;;;;;5034385;28;20025;-75
2023/03/22 03:53:28;;;;;;;9.57;3.80;;;20.70;70.10;;;;;;5011124;28;20065;-75
2023/03/22 03:55:54;;;;;;;6.80;3.67;;;20.70;70.00;;;;;;5014698;28;20040;-75
2023/03/22 03:58:20;;;;;;;5.63;3.35;;;20.70;69.90;;;;;;4996753;28;20025;-75
2023/03/22 04:00:47;;;;;;;7.32;3.72;;;20.70;70.10;;;;;;5004154;28;20025;-75
2023/03/22 04:03:31;;;;;;;7.63;3.88;;;20.70;69.90;;;;;;4994709;28;20059;-75
2023/03/22 04:06:12;;;;;;;7.07;3.60;;;20.70;69.90;;;;;;5013387;28;20034;-75
2023/03/22 04:08:44;;;;;;;8.55;3.90;;;20.70;70.00;;;;;;5013770;28;20551;-75
2023/03/22 04:11:10;;;;;;;6.50;3.40;;;20.70;70.10;;;;;;5014561;28;20099;-75
2023/03/22 04:13:38;;;;;;;6.82;3.80;;;20.70;69.90;;;;;;5033994;28;20504;-75
2023/03/22 04:16:08;;;;;;;4.85;3.35;;;20.60;69.90;;;;;;5034021;28;20120;-75
2023/03/22 04:18:36;;;;;;;7.30;3.45;;;20.70;70.10;;;;;;5033373;28;20086;-75
2023/03/22 04:21:06;;;;;;;7.40;3.60;;;20.70;70.10;;;;;;5033980;28;20021;-75
2023/03/22 04:23:40;;;;;;;14.25;4.00;;;20.60;70.50;;;;;;5018326;28;20036;-75
2023/03/22 04:26:06;;;;;;;9.05;4.10;;;20.70;69.90;;;;;;5033691;28;20086;-74
2023/03/22 04:28:42;;;;;;;6.93;3.28;;;20.60;70.10;;;;;;5033213;28;20037;-75
2023/03/22 04:31:10;;;;;;;7.45;3.45;;;20.60;70.10;;;;;;5034609;28;20443;-75
2023/03/22 04:33:48;;;;;;;6.63;3.60;;;20.60;70.00;;;;;;5037742;28;20025;-75
2023/03/22 04:36:29;;;;;;;8.27;3.63;;;20.70;70.30;;;;;;5033478;28;20029;-75
2023/03/22 04:39:14;;;;;;;6.05;3.15;;;20.70;70.30;;;;;;5050765;28;20037;-75
2023/03/22 04:41:46;;;;;;;6.63;3.35;;;20.60;70.40;;;;;;5016710;28;20033;-74
2023/03/22 04:44:12;;;;;;;7.13;3.60;;;20.70;69.80;;;;;;5032865;28;20083;-74
2023/03/22 04:46:43;;;;;;;7.60;3.33;;;20.60;69.40;;;;;;5032834;28;20393;-74
2023/03/22 04:49:09;;;;;;;5.85;3.25;;;20.70;69.30;;;;;;5032570;28;20480;-74
2023/03/22 04:51:38;;;;;;;5.43;3.50;;;20.70;69.20;;;;;;5033204;28;20036;-74
2023/03/22 04:54:27;;;;;;;4.97;3.15;;;20.70;69.00;;;;;;5037388;28;20405;-75
2023/03/22 04:56:54;;;;;;;7.25;3.55;;;20.80;69.30;;;;;;5032946;28;20037;-76
2023/03/22 04:59:22;;;;;;;5.32;3.15;;;20.80;69.50;;;;;;5032663;28;20040;-75
2023/03/22 05:01:50;;;;;;;5.40;3.00;;;20.80;69.20;;;;;;5032903;28;20059;-76
2023/03/22 05:04:19;;;;;;;4.25;2.90;;;20.80;69.30;;;;;;5032840;28;20025;-75
2023/03/22 05:06:52;;;;;;;4.97;3.20;;;20.80;69.20;;;;;;5014738;28;20033;-75
2023/03/22 05:09:28;;;;;;;6.25;3.42;;;20.80;69.40;;;;;;5011676;28;20420;-75
2023/03/22 05:11:55;;;;;;;5.07;2.85;;;20.90;69.50;;;;;;4998487;28;20370;-75
2023/03/22 05:14:38;;;;;;;6.07;3.13;;;20.90;69.40;;;;;;5031779;28;20029;-75
2023/03/22 05:17:05;;;;;;;7.38;3.42;;;20.90;69.40;;;;;;5016970;28;20122;-75
2023/03/22 05:19:34;;;;;;;6.03;3.20;;;20.90;69.40;;;;;;5011110;28;20036;-75
2023/03/22 05:22:00;;;;;;;5.13;3.10;;;20.80;69.30;;;;;;5015483;28;20037;-76
2023/03/22 05:24:47;;;;;;;4.90;2.95;;;20.80;69.90;;;;;;5031794;28;20029;-75
2023/03/22 05:27:29;;;;;;;6.32;3.42;;;20.80;69.40;;;;;;5032189;28;20087;-75
2023/03/22 05:29:56;;;;;;;5.20;2.90;;;20.90;69.40;;;;;;5032229;28;20439;-75
2023/03/22 05:32:28;;;;;;;6.68;3.53;;;20.90;69.40;;;;;;5030899;28;20041;-75
2023/03/22 05:34:55;;;;;;;6.00;3.10;;;20.90;69.40;;;;;;4999688;28;20040;-75
2023/03/22 05:37:33;;;;;;;5.60;3.03;;;20.90;69.40;;;;;;5032085;28;20033;-75
2023/03/22 05:39:59;;;;;;;7.72;3.08;;;20.80;69.30;;;;;;5015874;28;20037;-75
2023/03/22 05:42:33;;;;;;;4.75;3.05;;;20.90;69.10;;;;;;5031224;28;20036;-75
2023/03/22 05:45:03;;;;;;;5.43;3.37;;;20.90;69.20;;;;;;5032043;28;20037;-75
2023/03/22 05:47:29;;;;;;;5.30;3.17;;;20.80;69.20;;;;;;5031698;28;20039;-75
2023/03/22 05:50:00;;;;;;;5.90;3.20;;;20.80;69.10;;;;;;5015807;28;20476;-75
2023/03/22 05:52:27;;;;;;;5.70;3.28;;;20.80;69.00;;;;;;5030973;28;20044;-74
2023/03/22 05:55:19;;;;;;;4.93;3.00;;;20.80;68.90;;;;;;5026280;28;20068;-75
2023/03/22 05:57:50;;;;;;;5.57;3.20;;;20.80;68.80;;;;;;5014751;28;20319;-75
2023/03/22 06:00:17;;;;;;;4.65;2.90;;;20.80;68.70;;;;;;5031295;28;20549;-75
2023/03/22 06:03:04;;;;;;;4.38;2.88;;;20.80;68.60;;;;;;5048748;28;20032;-75
2023/03/22 06:05:35;;;;;;;4.50;2.90;;;20.80;68.70;;;;;;5032069;28;20029;-75
2023/03/22 06:08:01;;;;;;;5.05;3.05;;;20.80;68.60;;;;;;4999030;28;20489;-75
2023/03/22 06:10:27;;;;;;;5.25;3.13;;;20.80;68.60;;;;;;5051681;28;20542;-75
2023/03/22 06:12:54;;;;;;;7.53;3.22;;;20.80;68.70;;;;;;5030510;28;20104;-75
2023/03/22 06:15:26;;;;;;;4.53;2.95;;;20.80;68.70;;;;;;5015556;28;20056;-75
2023/03/22 06:18:04;;;;;;;5.03;2.95;;;20.80;68.60;;;;;;5031033;28;20029;-75
2023/03/22 06:20:35;;;;;;;6.28;3.20;;;20.80;68.70;;;;;;5031874;28;20495;-75
2023/03/22 06:23:07;;;;;;;4.53;2.80;;;20.80;68.70;;;;;;5030656;28;20047;-75
2023/03/22 06:25:34;;;;;;;4.35;2.97;;;20.80;68.70;;;;;;5031437;28;20032;-75
2023/03/22 06:28:01;;;;;;;5.43;3.13;;;20.80;68.80;;;;;;5031059;28;20049;-75
2023/03/22 06:30:28;;;;;;;6.47;3.33;;;20.70;68.70;;;;;;5031357;28;20041;-75
2023/03/22 06:33:12;;;;;;;7.20;3.60;;;20.70;68.70;;;;;;5014182;28;20037;-75
2023/03/22 06:35:41;;;;;;;5.05;3.20;;;20.70;68.60;;;;;;5031615;28;20037;-75
2023/03/22 06:38:10;;;;;;;3.72;2.80;;;20.80;68.80;;;;;;5031021;28;20037;-75
2023/03/22 06:40:37;;;;;;;5.55;3.00;;;20.70;68.60;;;;;;5031381;28;20036;-76
2023/03/22 06:43:03;;;;;;;4.53;3.00;;;20.70;68.60;;;;;;5030206;28;20431;-75
2023/03/22 06:45:32;;;;;;;5.18;2.92;;;20.70;68.70;;;;;;5031285;28;20044;-75
2023/03/22 06:47:59;;;;;;;5.00;3.13;;;20.70;68.60;;;;;;5030879;28;20031;-75
2023/03/22 06:50:37;;;;;;;5.32;3.17;;;20.70;68.60;;;;;;5031563;28;20450;-75
2023/03/22 06:53:08;;;;;;;5.88;3.20;;;20.70;68.50;;;;;;5030396;28;20438;-75
2023/03/22 06:55:35;;;;;;;5.25;2.92;;;20.80;68.70;;;;;;4998865;28;20392;-75
2023/03/22 06:58:10;;;;;;;5.32;3.03;;;20.70;68.60;;;;;;5031155;28;20044;-75
2023/03/22 07:00:37;;;;;;;5.70;2.80;;;20.70;68.60;;;;;;5031386;28;20033;-76
2023/03/22 07:03:05;;;;;;;5.30;3.07;;;20.70;68.60;;;;;;5013841;28;20515;-76
2023/03/22 07:06:05;;;;;;;6.38;3.55;;;20.70;68.60;;;;;;5042861;28;20048;-76
2023/03/22 07:08:34;;;;;;;6.78;3.03;;;20.70;68.60;;;;;;5031017;28;20500;-73
2023/03/22 07:11:00;;;;;;;5.22;2.80;;;20.80;68.70;;;;;;5050902;28;20429;-74
2023/03/22 07:13:26;;;;;;;9.65;3.38;;;20.70;68.70;;;;;;5034755;28;20033;-75
2023/03/22 07:15:58;;;;;;;7.65;3.03;;;20.70;68.80;;;;;;5035050;28;20111;-76
2023/03/22 07:18:37;;;;;;;15.77;3.35;;;20.70;68.80;;;;;;5034723;28;20036;-76
2023/03/22 07:21:05;;;;;;;8.40;2.92;;;20.70;69.00;;;;;;5018312;28;20035;-74
2023/03/22 07:23:32;;;;;;;7.78;3.08;;;20.70;68.70;;;;;;5017789;28;20029;-76
2023/03/22 07:26:05;;;;;;;7.35;2.97;;;20.70;68.90;;;;;;5054586;22;20071;-76
2023/03/22 07:28:34;;;;;;;4.78;3.10;;;20.70;68.90;;;;;;5050941;28;20021;-76
2023/03/22 07:31:10;;;;;;;6.78;2.80;;;20.70;68.80;;;;;;5051130;28;20029;-76
2023/03/22 07:33:45;;;;;;;7.35;3.45;;;20.70;68.80;;;;;;5050955;28;20064;-77
2023/03/22 07:36:11;;;;;;;8.40;2.75;;;20.70;68.90;;;;;;5044470;28;20053;-77
2023/03/22 07:38:37;;;;;;;7.65;3.70;;;20.70;68.60;;;;;;5014784;28;20124;-77
2023/03/22 07:41:07;;;;;;;4.85;3.03;;;20.70;68.80;;;;;;5031333;28;20106;-76
2023/03/22 07:43:49;;;;;;;7.03;3.20;;;20.70;68.70;;;;;;5031302;28;20112;-77
2023/03/22 07:46:16;;;;;;;6.13;3.42;;;20.60;68.70;;;;;;5030817;28;20083;-76
2023/03/22 07:48:58;;;;;;;9.20;3.50;;;20.70;68.80;;;;;;5015064;28;20044;-77
2023/03/22 07:51:43;;;;;;;7.38;4.03;;;20.70;68.60;;;;;;5031692;28;20034;-76
2023/03/22 07:54:09;;;;;;;12.00;3.40;;;20.70;68.70;;;;;;5030888;28;20469;-76
2023/03/22 07:56:35;;;;;;;8.10;3.30;;;20.70;68.80;;;;;;5030654;28;20040;-77
2023/03/22 07:59:01;;;;;;;7.43;3.40;;;20.60;68.60;;;;;;5030834;28;20037;-76
2023/03/22 08:01:27;;;;;;;5.88;2.95;;;20.70;68.60;;;;;;5032091;28;20112;-76
2023/03/22 08:04:04;;;;;;;5.38;3.17;;;20.70;68.80;;;;;;5030707;28;20608;-77
2023/03/22 08:06:57;;;;;;;7.55;3.30;;;20.70;68.50;;;;;;5028707;28;20485;-76
2023/03/22 08:09:24;;;;;;;6.30;3.10;;;20.70;68.50;;;;;;5030632;28;20041;-76
2023/03/22 08:11:50;;;;;;;8.23;3.35;;;20.70;68.50;;;;;;5014361;28;20025;-77
2023/03/22 08:14:16;;;;;;;6.63;3.15;;;20.70;68.50;;;;;;5030592;28;20041;-77
2023/03/22 08:16:43;;;;;;;8.50;3.10;;;20.70;68.70;;;;;;5030336;28;20036;-77
2023/03/22 08:19:10;;;;;;;6.22;3.17;;;20.70;68.80;;;;;;5030566;28;20102;-76
2023/03/22 08:21:37;;;;;;;7.57;2.90;;;20.70;68.90;;;;;;5030328;28;20032;-77
2023/03/22 08:24:06;;;;;;;5.53;3.00;;;20.70;68.90;;;;;;5014113;28;20485;-77
2023/03/22 08:27:04;;;;;;;6.82;3.00;;;20.70;68.80;;;;;;5024149;28;20139;-76
2023/03/22 08:29:44;;;;;;;5.10;3.20;;;20.70;68.90;;;;;;5030569;28;20231;-76
2023/03/22 08:32:10;;;;;;;9.98;3.05;;;20.70;69.00;;;;;;5030209;28;20088;-77
2023/03/22 08:34:37;;;;;;;7.35;3.30;;;20.70;68.70;;;;;;5013772;28;20033;-77
2023/03/22 08:37:05;;;;;;;8.82;3.30;;;20.60;68.60;;;;;;5013530;28;20049;-76
2023/03/22 08:39:32;;;;;;;5.57;3.30;;;20.70;68.70;;;;;;5030124;28;20436;-77
2023/03/22 08:42:18;;;;;;;11.07;3.97;;;20.70;68.70;;;;;;5031220;28;20040;-76
2023/03/22 08:44:45;;;;;;;4.90;2.70;;;20.70;68.60;;;;;;5029970;28;20026;-77
2023/03/22 08:47:11;;;;;;;9.73;3.17;;;20.60;68.80;;;;;;5029891;28;20465;-77
2023/03/22 08:49:39;;;;;;;7.80;3.58;;;20.70;68.60;;;;;;5030036;28;20033;-76
2023/03/22 08:52:12;;;;;;;5.63;3.17;;;20.60;68.50;;;;;;5029966;28;20207;-76
2023/03/22 08:54:51;;;;;;;8.20;3.38;;;20.70;68.60;;;;;;5029848;28;20029;-76
2023/03/22 08:57:36;;;;;;;7.25;3.53;;;20.70;68.80;;;;;;5029605;28;20025;-76
2023/03/22 09:00:20;;;;;;;11.95;3.83;;;20.70;68.50;;;;;;5031385;28;20029;-76
2023/03/22 09:03:05;;;;;;;8.85;3.40;;;20.70;68.50;;;;;;5029492;28;20092;-77
2023/03/22 09:05:31;;;;;;;6.80;3.05;;;20.70;68.60;;;;;;5029424;28;20026;-76
2023/03/22 09:07:57;;;;;;;9.05;3.33;;;20.70;68.40;;;;;;5029273;28;20440;-77
2023/03/22 09:10:31;;;;;;;6.25;3.00;;;20.70;68.60;;;;;;5029557;28;20280;-77
2023/03/22 09:12:57;;;;;;;7.85;3.13;;;20.70;68.80;;;;;;5012932;28;20120;-77
2023/03/22 09:15:23;;;;;;;6.88;3.33;;;20.70;68.50;;;;;;5029719;28;20590;-77
2023/03/22 09:18:03;;;;;;;8.43;3.60;;;20.70;68.50;;;;;;5012740;28;20059;-77
2023/03/22 09:20:29;;;;;;;9.88;3.25;;;20.70;69.00;;;;;;5029187;28;20057;-76
2023/03/22 09:22:58;;;;;;;8.52;3.28;;;20.70;68.70;;;;;;5029441;28;20025;-75
2023/03/22 09:25:24;;;;;;;9.77;3.50;;;20.70;68.80;;;;;;5013011;28;20032;-77
2023/03/22 09:27:50;;;;;;;15.07;3.63;;;20.70;68.90;;;;;;5012763;28;20026;-76
2023/03/22 09:30:17;;;;;;;9.60;3.83;;;20.80;69.00;;;;;;5029441;28;20056;-76
2023/03/22 09:32:43;;;;;;;8.48;3.53;;;20.80;69.30;;;;;;5029138;28;20048;-75
2023/03/22 09:35:11;;;;;;;12.35;4.35;;;20.80;69.00;;;;;;5013384;28;20493;-76
2023/03/22 09:37:48;;;;;;;9.00;4.53;;;20.90;70.60;;;;;;5029119;28;20028;-75
2023/03/22 09:40:16;;;;;;;7.82;4.10;;;20.90;70.80;;;;;;4993353;28;20073;-78
2023/03/22 09:42:46;;;;;;;14.80;5.38;;;21.00;71.40;;;;;;5025764;28;20529;-77
2023/03/22 09:45:28;;;;;;;37.03;10.10;;;21.00;70.20;;;;;;5012869;28;20041;-77
2023/03/22 09:47:56;;;;;;;34.38;9.35;;;20.80;60.00;;;;;;5029336;28;20029;-78
2023/03/22 09:50:29;;;;;;;23.20;8.90;;;20.50;58.50;;;;;;5012714;28;20444;-78
2023/03/22 09:52:55;;;;;;;28.88;9.40;;;20.40;58.20;;;;;;5030255;28;20060;-78
2023/03/22 09:55:36;;;;;;;28.23;8.70;;;20.30;56.80;;;;;;5030634;28;20064;-77
2023/03/22 09:58:11;;;;;;;18.30;8.10;;;20.20;58.50;;;;;;5029513;28;20029;-77
2023/03/22 10:00:44;;;;;;;14.63;7.45;;;20.20;57.50;;;;;;5030815;28;20026;-78
2023/03/22 10:03:29;;;;;;;14.00;6.95;;;20.20;57.30;;;;;;5027177;28;20051;-76
2023/03/22 10:06:19;;;;;;;24.75;7.28;;;20.30;57.70;;;;;;5027345;28;20056;-76
2023/03/22 10:09:10;;;;;;;17.70;6.50;;;20.40;60.00;;;;;;5030047;28;20485;-76
2023/03/22 10:11:48;;;;;;;18.05;5.65;;;20.60;60.50;;;;;;5028664;28;20034;-76
2023/03/22 10:14:45;;;;;;;13.80;5.55;;;20.60;60.00;;;;;;5027857;28;20172;-76
2023/03/22 10:17:16;;;;;;;14.02;5.50;;;20.70;60.00;;;;;;5027915;28;20029;-76
2023/03/22 10:20:29;;;;;;;12.68;4.95;;;20.80;60.10;;;;;;5029642;28;20456;-76
2023/03/22 10:22:58;;;;;;;13.63;4.40;;;20.90;60.40;;;;;;5029766;28;20115;-75
2023/03/22 10:25:34;;;;;;;11.10;4.20;;;20.90;60.40;;;;;;4996410;28;20029;-77
2023/03/22 10:28:00;;;;;;;11.10;4.40;;;20.90;60.50;;;;;;5030037;28;20037;-77
2023/03/22 10:30:35;;;;;;;10.70;4.18;;;20.90;60.80;;;;;;5029626;28;20079;-75
2023/03/22 10:33:03;;;;;;;10.02;3.72;;;21.00;61.00;;;;;;5028273;28;20029;-75
2023/03/22 10:35:30;;;;;;;11.50;4.10;;;21.00;61.10;;;;;;5030070;28;20026;-72
2023/03/22 10:38:00;;;;;;;10.07;3.50;;;21.00;60.90;;;;;;5030069;28;20033;-73
2023/03/22 10:40:30;;;;;;;8.93;3.45;;;21.00;61.10;;;;;;5029240;28;20389;-73
2023/03/22 10:43:02;;;;;;;20.17;4.40;;;21.10;61.30;;;;;;5029146;28;20038;-74
2023/03/22 10:45:32;;;;;;;22.30;5.68;;;21.10;61.40;;;;;;5028483;28;20040;-73
2023/03/22 10:48:04;;;;;;;16.42;4.70;;;21.10;61.60;;;;;;5029831;28;20030;-74
2023/03/22 10:50:36;;;;;;;17.58;5.32;;;21.10;62.00;;;;;;5028011;28;20037;-74
2023/03/22 10:53:03;;;;;;;23.08;5.60;;;21.10;62.20;;;;;;5027816;28;20049;-73
2023/03/22 10:55:29;;;;;;;16.50;4.93;;;21.10;62.40;;;;;;5028147;28;20537;-73
2023/03/22 10:58:15;;;;;;;19.83;5.28;;;21.10;62.50;;;;;;5028519;28;20108;-74
2023/03/22 11:00:53;;;;;;;16.70;4.43;;;21.10;62.70;;;;;;5022406;28;20057;-74
2023/03/22 11:03:35;;;;;;;13.02;5.03;;;21.10;62.90;;;;;;5023923;28;20033;-73
2023/03/22 11:06:35;;;;;;;15.02;5.22;;;21.10;62.80;;;;;;5028706;28;20030;-74
2023/03/22 11:09:22;;;;;;;14.43;4.60;;;21.10;63.00;;;;;;5029171;28;20509;-73
2023/03/22 11:11:55;;;;;;;17.00;5.10;;;21.10;63.30;;;;;;5025047;28;20036;-74
2023/03/22 11:14:41;;;;;;;15.57;4.72;;;21.10;63.40;;;;;;5028900;28;20056;-75
2023/03/22 11:17:22;;;;;;;16.63;4.72;;;21.10;63.50;;;;;;5023488;28;20041;-73
2023/03/22 11:20:00;;;;;;;16.45;4.72;;;21.20;63.60;;;;;;5029137;28;20030;-74
2023/03/22 11:22:39;;;;;;;15.63;4.55;;;21.20;63.80;;;;;;5024611;28;20382;-73
2023/03/22 11:25:37;;;;;;;15.80;4.30;;;21.20;63.80;;;;;;5027158;28;20365;-75
2023/03/22 11:28:06;;;;;;;17.17;4.97;;;21.20;63.90;;;;;;5009481;28;20042;-74
2023/03/22 11:30:33;;;;;;;16.20;4.47;;;21.20;64.00;;;;;;5027028;28;20025;-75
2023/03/22 11:33:23;;;;;;;13.15;4.43;;;21.20;64.10;;;;;;5027247;28;20108;-75
2023/03/22 11:35:58;;;;;;;12.77;4.72;;;21.20;64.30;;;;;;5023754;28;20025;-75
2023/03/22 11:38:44;;;;;;;12.60;4.10;;;21.20;64.30;;;;;;5026984;28;20547;-74
2023/03/22 11:41:18;;;;;;;13.95;4.68;;;21.20;64.30;;;;;;5025565;28;20148;-74
2023/03/22 11:44:13;;;;;;;14.85;4.60;;;21.20;64.40;;;;;;5024737;28;20030;-74
2023/03/22 11:46:59;;;;;;;14.48;4.32;;;21.20;64.70;;;;;;5021608;28;20433;-73
2023/03/22 11:49:46;;;;;;;13.80;3.97;;;21.20;64.60;;;;;;5005859;28;20054;-73
2023/03/22 11:52:22;;;;;;;15.98;4.18;;;21.20;64.50;;;;;;5024839;28;20025;-74
2023/03/22 11:54:49;;;;;;;11.48;4.18;;;21.20;64.60;;;;;;5025128;28;20037;-73
2023/03/22 11:57:35;;;;;;;12.43;4.45;;;21.20;64.60;;;;;;5026947;28;20021;-74
2023/03/22 12:00:12;;;;;;;11.80;4.10;;;21.20;64.60;;;;;;5024072;28;20436;-73
2023/03/22 12:03:01;;;;;;;9.85;4.85;;;21.30;64.70;;;;;;5024137;28;20061;-72
2023/03/22 12:05:38;;;;;;;17.50;6.07;;;21.30;65.30;;;;;;5030121;28;20033;-72
2023/03/22 12:08:38;;;;;;;12.98;4.90;;;21.30;65.60;;;;;;5027555;28;20247;-72
2023/03/22 12:11:06;;;;;;;15.93;5.07;;;21.30;65.50;;;;;;5028038;28;20044;-72
2023/03/22 12:13:42;;;;;;;12.80;4.90;;;21.30;65.40;;;;;;5028784;28;20107;-72
2023/03/22 12:16:11;;;;;;;17.48;5.32;;;21.30;65.30;;;;;;5028365;28;20059;-72
2023/03/22 12:18:45;;;;;;;17.88;5.25;;;21.30;65.30;;;;;;5028347;28;20029;-72
2023/03/22 12:21:11;;;;;;;14.15;4.47;;;21.30;65.20;;;;;;5014244;28;20029;-72
2023/03/22 12:23:37;;;;;;;15.05;4.80;;;21.30;65.10;;;;;;5030153;28;20066;-72
2023/03/22 12:26:05;;;;;;;16.92;5.43;;;21.30;65.20;;;;;;5029791;28;20025;-72
2023/03/22 12:28:55;;;;;;;17.23;5.93;;;21.30;65.20;;;;;;5031528;28;20481;-72
2023/03/22 12:31:30;;;;;;;17.80;5.30;;;21.30;65.10;;;;;;5031757;28;20038;-72
2023/03/22 12:34:00;;;;;;;17.08;5.78;;;21.30;65.20;;;;;;5013241;28;20045;-72
2023/03/22 12:36:41;;;;;;;18.17;5.30;;;21.30;65.40;;;;;;5012277;28;20056;-72
2023/03/22 12:39:16;;;;;;;20.88;5.57;;;21.30;65.60;;;;;;5030150;28;20036;-72
2023/03/22 12:41:49;;;;;;;16.33;5.53;;;21.40;66.80;;;;;;5030465;28;20040;-72
2023/03/22 12:44:31;;;;;;;15.45;5.47;;;21.40;67.30;;;;;;5029730;28;20043;-72
2023/03/22 12:47:24;;;;;;;20.98;5.78;;;21.40;67.00;;;;;;5029912;28;20371;-72
2023/03/22 12:50:16;;;;;;;15.95;6.03;;;21.40;67.10;;;;;;5013814;28;20524;-72
2023/03/22 12:52:53;;;;;;;14.63;5.43;;;21.40;66.70;;;;;;5029724;28;20037;-73
2023/03/22 12:55:24;;;;;;;15.80;4.80;;;21.40;66.60;;;;;;5013800;28;20033;-72
2023/03/22 12:57:53;;;;;;;13.93;4.78;;;21.40;66.40;;;;;;5031002;28;20112;-72
2023/03/22 13:00:26;;;;;;;16.95;4.93;;;21.40;66.30;;;;;;5030973;28;20040;-73
2023/03/22 13:03:07;;;;;;;16.55;5.97;;;21.40;66.30;;;;;;5013359;28;20108;-72
2023/03/22 13:05:35;;;;;;;15.00;4.70;;;21.40;66.30;;;;;;5030898;28;20366;-72
2023/03/22 13:08:02;;;;;;;14.50;4.75;;;21.30;66.20;;;;;;5029231;28;20108;-73
2023/03/22 13:10:28;;;;;;;14.07;5.07;;;21.40;66.30;;;;;;5030878;28;20033;-73
2023/03/22 13:13:05;;;;;;;12.18;4.72;;;21.40;66.30;;;;;;5030380;28;20485;-72
2023/03/22 13:15:33;;;;;;;15.15;5.43;;;21.40;66.40;;;;;;5029466;28;20044;-72